sensor_id;sensor_type;location;lat;lon;timestamp;P1;durP1;ratioP1;P2;durP2;ratioP2
61525;SDS011;47394;41.366;-8.738;2022-12-10T00:01:21;23.35;;;17.05;;
61525;SDS011;47394;41.366;-8.738;2022-12-10T00:04:21;22.80;;;17.77;;
61525;SDS011;47394;41.366;-8.738;2022-12-10T00:07:20;23.98;;;17.40;;
61525;SDS011;47394;41.366;-8.738;2022-12-10T00:10:19;29.13;;;17.42;;
61525;SDS011;47394;41.366;-8.738;2022-12-10T00:13:19;30.30;;;20.02;;
61525;SDS011;47394;41.366;-8.738;2022-12-10T00:16:20;22.17;;;17.13;;
61525;SDS011;47394;41.366;-8.738;2022-12-10T00:19:20;21.10;;;16.48;;
61525;SDS011;47394;41.366;-8.738;2022-12-10T00:22:19;24.42;;;17.65;;
61525;SDS011;47394;41.366;-8.738;2022-12-10T00:25:18;20.35;;;18.00;;
61525;SDS011;47394;41.366;-8.738;2022-12-10T00:28:21;20.90;;;16.90;;
61525;SDS011;47394;41.366;-8.738;2022-12-10T00:31:21;27.73;;;17.80;;
61525;SDS011;47394;41.366;-8.738;2022-12-10T00:34:20;18.00;;;15.93;;
61525;SDS011;47394;41.366;-8.738;2022-12-10T00:37:20;24.00;;;16.95;;
61525;SDS011;47394;41.366;-8.738;2022-12-10T00:40:22;24.08;;;18.08;;
61525;SDS011;47394;41.366;-8.738;2022-12-10T00:43:21;37.97;;;24.90;;
61525;SDS011;47394;41.366;-8.738;2022-12-10T00:46:21;45.38;;;28.83;;
61525;SDS011;47394;41.366;-8.738;2022-12-10T00:49:20;41.40;;;25.30;;
61525;SDS011;47394;41.366;-8.738;2022-12-10T00:52:22;30.85;;;23.20;;
61525;SDS011;47394;41.366;-8.738;2022-12-10T00:55:21;27.73;;;20.17;;
61525;SDS011;47394;41.366;-8.738;2022-12-10T00:58:22;22.90;;;16.58;;
61525;SDS011;47394;41.366;-8.738;2022-12-10T01:01:29;21.05;;;14.00;;
61525;SDS011;47394;41.366;-8.738;2022-12-10T01:04:28;23.40;;;14.15;;
61525;SDS011;47394;41.366;-8.738;2022-12-10T01:07:27;18.48;;;13.15;;
61525;SDS011;47394;41.366;-8.738;2022-12-10T01:10:27;31.98;;;19.75;;
61525;SDS011;47394;41.366;-8.738;2022-12-10T01:13:28;34.00;;;20.08;;
61525;SDS011;47394;41.366;-8.738;2022-12-10T01:16:29;23.27;;;16.85;;
61525;SDS011;47394;41.366;-8.738;2022-12-10T01:19:29;19.10;;;15.82;;
61525;SDS011;47394;41.366;-8.738;2022-12-10T01:22:28;19.92;;;13.75;;
61525;SDS011;47394;41.366;-8.738;2022-12-10T01:25:28;20.30;;;16.17;;
61525;SDS011;47394;41.366;-8.738;2022-12-10T01:28:31;22.17;;;17.77;;
61525;SDS011;47394;41.366;-8.738;2022-12-10T01:31:32;21.08;;;16.55;;
61525;SDS011;47394;41.366;-8.738;2022-12-10T01:34:32;26.83;;;18.13;;
61525;SDS011;47394;41.366;-8.738;2022-12-10T01:37:31;27.60;;;17.85;;
61525;SDS011;47394;41.366;-8.738;2022-12-10T01:40:31;20.13;;;12.95;;
61525;SDS011;47394;41.366;-8.738;2022-12-10T01:43:52;16.63;;;11.63;;
61525;SDS011;47394;41.366;-8.738;2022-12-10T01:47:01;21.27;;;9.18;;
61525;SDS011;47394;41.366;-8.738;2022-12-10T01:50:01;17.73;;;7.57;;
61525;SDS011;47394;41.366;-8.738;2022-12-10T01:53:00;14.80;;;6.93;;
61525;SDS011;47394;41.366;-8.738;2022-12-10T01:56:02;15.48;;;7.13;;
61525;SDS011;47394;41.366;-8.738;2022-12-10T01:59:05;14.40;;;6.20;;
61525;SDS011;47394;41.366;-8.738;2022-12-10T02:02:19;14.60;;;6.50;;
61525;SDS011;47394;41.366;-8.738;2022-12-10T02:05:32;20.83;;;6.07;;
61525;SDS011;47394;41.366;-8.738;2022-12-10T02:08:40;18.88;;;7.53;;
61525;SDS011;47394;41.366;-8.738;2022-12-10T02:15:02;15.70;;;6.63;;
61525;SDS011;47394;41.366;-8.738;2022-12-10T02:18:07;15.95;;;6.40;;
61525;SDS011;47394;41.366;-8.738;2022-12-10T02:21:17;15.70;;;5.90;;
61525;SDS011;47394;41.366;-8.738;2022-12-10T02:24:22;11.77;;;5.40;;
61525;SDS011;47394;41.366;-8.738;2022-12-10T02:27:34;19.38;;;5.72;;
61525;SDS011;47394;41.366;-8.738;2022-12-10T02:30:42;12.43;;;4.88;;
61525;SDS011;47394;41.366;-8.738;2022-12-10T02:33:50;12.50;;;5.38;;
61525;SDS011;47394;41.366;-8.738;2022-12-10T02:36:53;19.35;;;5.45;;
61525;SDS011;47394;41.366;-8.738;2022-12-10T02:39:57;11.52;;;5.05;;
61525;SDS011;47394;41.366;-8.738;2022-12-10T02:43:03;16.20;;;4.70;;
61525;SDS011;47394;41.366;-8.738;2022-12-10T02:46:05;16.40;;;4.68;;
61525;SDS011;47394;41.366;-8.738;2022-12-10T02:49:11;11.57;;;4.97;;
61525;SDS011;47394;41.366;-8.738;2022-12-10T02:52:13;10.77;;;4.80;;
61525;SDS011;47394;41.366;-8.738;2022-12-10T02:55:13;15.48;;;4.97;;
61525;SDS011;47394;41.366;-8.738;2022-12-10T02:58:59;10.20;;;4.93;;
61525;SDS011;47394;41.366;-8.738;2022-12-10T03:05:24;8.77;;;4.60;;
61525;SDS011;47394;41.366;-8.738;2022-12-10T03:08:54;10.43;;;4.38;;
61525;SDS011;47394;41.366;-8.738;2022-12-10T03:12:06;7.65;;;3.72;;
61525;SDS011;47394;41.366;-8.738;2022-12-10T03:15:10;11.40;;;4.82;;
61525;SDS011;47394;41.366;-8.738;2022-12-10T03:18:11;10.93;;;4.15;;
61525;SDS011;47394;41.366;-8.738;2022-12-10T03:21:12;8.43;;;4.70;;
61525;SDS011;47394;41.366;-8.738;2022-12-10T03:24:13;9.40;;;5.47;;
61525;SDS011;47394;41.366;-8.738;2022-12-10T03:27:16;11.23;;;6.15;;
61525;SDS011;47394;41.366;-8.738;2022-12-10T03:30:18;15.18;;;6.72;;
61525;SDS011;47394;41.366;-8.738;2022-12-10T03:33:18;14.23;;;6.43;;
61525;SDS011;47394;41.366;-8.738;2022-12-10T03:36:18;13.98;;;5.25;;
61525;SDS011;47394;41.366;-8.738;2022-12-10T03:39:18;16.77;;;5.45;;
61525;SDS011;47394;41.366;-8.738;2022-12-10T03:42:20;18.50;;;5.78;;
61525;SDS011;47394;41.366;-8.738;2022-12-10T03:45:21;17.52;;;5.13;;
61525;SDS011;47394;41.366;-8.738;2022-12-10T03:48:21;18.48;;;5.25;;
61525;SDS011;47394;41.366;-8.738;2022-12-10T03:51:20;16.55;;;4.65;;
61525;SDS011;47394;41.366;-8.738;2022-12-10T03:54:19;8.00;;;4.30;;
61525;SDS011;47394;41.366;-8.738;2022-12-10T03:57:19;15.15;;;4.75;;
61525;SDS011;47394;41.366;-8.738;2022-12-10T04:00:18;11.20;;;4.75;;
61525;SDS011;47394;41.366;-8.738;2022-12-10T04:03:17;12.05;;;4.63;;
61525;SDS011;47394;41.366;-8.738;2022-12-10T04:06:18;12.07;;;4.72;;
61525;SDS011;47394;41.366;-8.738;2022-12-10T04:09:17;15.63;;;4.65;;
61525;SDS011;47394;41.366;-8.738;2022-12-10T04:12:16;11.70;;;4.53;;
61525;SDS011;47394;41.366;-8.738;2022-12-10T04:15:37;9.30;;;4.80;;
61525;SDS011;47394;41.366;-8.738;2022-12-10T04:18:37;13.90;;;4.47;;
61525;SDS011;47394;41.366;-8.738;2022-12-10T04:21:37;8.52;;;4.43;;
61525;SDS011;47394;41.366;-8.738;2022-12-10T04:24:55;14.30;;;5.32;;
61525;SDS011;47394;41.366;-8.738;2022-12-10T04:28:13;11.15;;;4.63;;
61525;SDS011;47394;41.366;-8.738;2022-12-10T04:31:13;11.32;;;4.35;;
61525;SDS011;47394;41.366;-8.738;2022-12-10T04:34:12;11.15;;;3.63;;
61525;SDS011;47394;41.366;-8.738;2022-12-10T04:37:12;11.48;;;4.05;;
61525;SDS011;47394;41.366;-8.738;2022-12-10T04:40:11;9.55;;;3.90;;
61525;SDS011;47394;41.366;-8.738;2022-12-10T04:43:15;10.63;;;3.90;;
61525;SDS011;47394;41.366;-8.738;2022-12-10T04:46:15;10.02;;;3.75;;
61525;SDS011;47394;41.366;-8.738;2022-12-10T04:49:14;9.52;;;3.85;;
61525;SDS011;47394;41.366;-8.738;2022-12-10T04:52:14;14.10;;;5.00;;
61525;SDS011;47394;41.366;-8.738;2022-12-10T04:55:14;15.10;;;4.85;;
61525;SDS011;47394;41.366;-8.738;2022-12-10T04:58:13;18.42;;;6.75;;
61525;SDS011;47394;41.366;-8.738;2022-12-10T05:01:13;11.00;;;5.40;;
61525;SDS011;47394;41.366;-8.738;2022-12-10T05:04:13;9.77;;;5.10;;
61525;SDS011;47394;41.366;-8.738;2022-12-10T05:07:12;8.57;;;4.78;;
61525;SDS011;47394;41.366;-8.738;2022-12-10T05:10:11;15.70;;;4.45;;
61525;SDS011;47394;41.366;-8.738;2022-12-10T05:13:12;6.35;;;3.88;;
61525;SDS011;47394;41.366;-8.738;2022-12-10T05:16:14;10.90;;;3.85;;
61525;SDS011;47394;41.366;-8.738;2022-12-10T05:19:13;9.43;;;3.38;;
61525;SDS011;47394;41.366;-8.738;2022-12-10T05:22:13;7.03;;;3.40;;
61525;SDS011;47394;41.366;-8.738;2022-12-10T05:25:30;8.85;;;3.47;;
61525;SDS011;47394;41.366;-8.738;2022-12-10T05:28:30;7.95;;;3.83;;
61525;SDS011;47394;41.366;-8.738;2022-12-10T05:31:29;8.38;;;5.70;;
61525;SDS011;47394;41.366;-8.738;2022-12-10T05:34:29;10.10;;;5.90;;
61525;SDS011;47394;41.366;-8.738;2022-12-10T05:37:29;7.43;;;5.18;;
61525;SDS011;47394;41.366;-8.738;2022-12-10T05:40:30;11.13;;;4.30;;
61525;SDS011;47394;41.366;-8.738;2022-12-10T05:43:30;8.55;;;4.22;;
61525;SDS011;47394;41.366;-8.738;2022-12-10T05:46:30;10.55;;;4.45;;
61525;SDS011;47394;41.366;-8.738;2022-12-10T05:49:30;9.95;;;5.13;;
61525;SDS011;47394;41.366;-8.738;2022-12-10T05:52:31;7.28;;;4.85;;
61525;SDS011;47394;41.366;-8.738;2022-12-10T05:55:30;8.07;;;4.85;;
61525;SDS011;47394;41.366;-8.738;2022-12-10T05:58:30;10.77;;;4.28;;
61525;SDS011;47394;41.366;-8.738;2022-12-10T06:01:31;13.35;;;4.75;;
61525;SDS011;47394;41.366;-8.738;2022-12-10T06:04:32;11.98;;;4.50;;
61525;SDS011;47394;41.366;-8.738;2022-12-10T06:07:38;12.00;;;4.50;;
61525;SDS011;47394;41.366;-8.738;2022-12-10T06:10:38;9.45;;;5.18;;
61525;SDS011;47394;41.366;-8.738;2022-12-10T06:13:37;8.30;;;4.80;;
61525;SDS011;47394;41.366;-8.738;2022-12-10T06:16:38;9.45;;;5.60;;
61525;SDS011;47394;41.366;-8.738;2022-12-10T06:19:37;13.77;;;6.95;;
61525;SDS011;47394;41.366;-8.738;2022-12-10T06:22:40;10.60;;;8.10;;
61525;SDS011;47394;41.366;-8.738;2022-12-10T06:25:39;12.07;;;7.90;;
61525;SDS011;47394;41.366;-8.738;2022-12-10T06:28:39;9.45;;;8.05;;
61525;SDS011;47394;41.366;-8.738;2022-12-10T06:31:38;12.15;;;8.10;;
61525;SDS011;47394;41.366;-8.738;2022-12-10T06:34:38;14.00;;;8.57;;
61525;SDS011;47394;41.366;-8.738;2022-12-10T06:37:38;11.15;;;5.53;;
61525;SDS011;47394;41.366;-8.738;2022-12-10T06:40:39;11.75;;;4.95;;
61525;SDS011;47394;41.366;-8.738;2022-12-10T06:43:38;16.67;;;5.95;;
61525;SDS011;47394;41.366;-8.738;2022-12-10T06:46:39;17.75;;;4.50;;
61525;SDS011;47394;41.366;-8.738;2022-12-10T06:49:39;12.05;;;4.07;;
61525;SDS011;47394;41.366;-8.738;2022-12-10T06:52:38;9.02;;;4.53;;
61525;SDS011;47394;41.366;-8.738;2022-12-10T06:55:38;14.13;;;6.38;;
61525;SDS011;47394;41.366;-8.738;2022-12-10T06:58:37;13.80;;;6.65;;
61525;SDS011;47394;41.366;-8.738;2022-12-10T07:01:37;10.20;;;6.07;;
61525;SDS011;47394;41.366;-8.738;2022-12-10T07:04:36;8.75;;;6.43;;
61525;SDS011;47394;41.366;-8.738;2022-12-10T07:07:36;18.35;;;7.97;;
61525;SDS011;47394;41.366;-8.738;2022-12-10T07:10:36;12.77;;;7.88;;
61525;SDS011;47394;41.366;-8.738;2022-12-10T07:13:36;8.70;;;6.35;;
61525;SDS011;47394;41.366;-8.738;2022-12-10T07:16:36;9.00;;;6.57;;
61525;SDS011;47394;41.366;-8.738;2022-12-10T07:19:36;12.65;;;7.22;;
61525;SDS011;47394;41.366;-8.738;2022-12-10T07:22:35;14.23;;;8.15;;
61525;SDS011;47394;41.366;-8.738;2022-12-10T07:25:34;9.65;;;7.25;;
61525;SDS011;47394;41.366;-8.738;2022-12-10T07:28:35;14.73;;;8.05;;
61525;SDS011;47394;41.366;-8.738;2022-12-10T07:31:35;9.45;;;7.43;;
61525;SDS011;47394;41.366;-8.738;2022-12-10T07:34:34;10.20;;;7.55;;
61525;SDS011;47394;41.366;-8.738;2022-12-10T07:37:33;9.85;;;7.28;;
61525;SDS011;47394;41.366;-8.738;2022-12-10T07:40:33;8.50;;;7.45;;
61525;SDS011;47394;41.366;-8.738;2022-12-10T07:43:33;8.52;;;7.60;;
61525;SDS011;47394;41.366;-8.738;2022-12-10T07:46:33;7.53;;;6.80;;
61525;SDS011;47394;41.366;-8.738;2022-12-10T07:49:34;7.93;;;6.82;;
61525;SDS011;47394;41.366;-8.738;2022-12-10T07:52:34;11.35;;;8.30;;
61525;SDS011;47394;41.366;-8.738;2022-12-10T07:55:34;16.23;;;12.02;;
61525;SDS011;47394;41.366;-8.738;2022-12-10T07:58:33;11.75;;;8.93;;
61525;SDS011;47394;41.366;-8.738;2022-12-10T08:01:33;10.65;;;8.73;;
61525;SDS011;47394;41.366;-8.738;2022-12-10T08:04:32;9.20;;;8.00;;
61525;SDS011;47394;41.366;-8.738;2022-12-10T08:07:32;16.50;;;7.57;;
61525;SDS011;47394;41.366;-8.738;2022-12-10T08:10:33;13.00;;;8.38;;
61525;SDS011;47394;41.366;-8.738;2022-12-10T08:13:33;9.90;;;7.53;;
61525;SDS011;47394;41.366;-8.738;2022-12-10T08:16:32;10.38;;;7.63;;
61525;SDS011;47394;41.366;-8.738;2022-12-10T08:19:35;10.25;;;8.40;;
61525;SDS011;47394;41.366;-8.738;2022-12-10T08:22:35;9.00;;;8.10;;
61525;SDS011;47394;41.366;-8.738;2022-12-10T08:25:36;13.48;;;8.20;;
61525;SDS011;47394;41.366;-8.738;2022-12-10T08:28:36;10.98;;;8.10;;
61525;SDS011;47394;41.366;-8.738;2022-12-10T08:31:35;9.05;;;8.10;;
61525;SDS011;47394;41.366;-8.738;2022-12-10T08:34:35;11.85;;;8.52;;
61525;SDS011;47394;41.366;-8.738;2022-12-10T08:37:34;14.38;;;9.05;;
61525;SDS011;47394;41.366;-8.738;2022-12-10T08:40:34;11.98;;;9.93;;
61525;SDS011;47394;41.366;-8.738;2022-12-10T08:43:33;13.55;;;10.90;;
61525;SDS011;47394;41.366;-8.738;2022-12-10T08:46:32;17.73;;;14.90;;
61525;SDS011;47394;41.366;-8.738;2022-12-10T08:49:32;20.45;;;14.73;;
61525;SDS011;47394;41.366;-8.738;2022-12-10T08:52:31;18.30;;;14.80;;
61525;SDS011;47394;41.366;-8.738;2022-12-10T08:55:30;19.83;;;13.73;;
61525;SDS011;47394;41.366;-8.738;2022-12-10T08:58:30;18.80;;;14.95;;
61525;SDS011;47394;41.366;-8.738;2022-12-10T09:01:29;21.20;;;15.20;;
61525;SDS011;47394;41.366;-8.738;2022-12-10T09:04:28;18.35;;;15.95;;
61525;SDS011;47394;41.366;-8.738;2022-12-10T09:07:28;19.10;;;15.88;;
61525;SDS011;47394;41.366;-8.738;2022-12-10T09:10:28;22.45;;;17.20;;
61525;SDS011;47394;41.366;-8.738;2022-12-10T09:13:32;25.27;;;16.98;;
61525;SDS011;47394;41.366;-8.738;2022-12-10T09:16:32;22.60;;;18.98;;
61525;SDS011;47394;41.366;-8.738;2022-12-10T09:19:31;25.98;;;19.08;;
61525;SDS011;47394;41.366;-8.738;2022-12-10T09:22:31;35.25;;;19.35;;
61525;SDS011;47394;41.366;-8.738;2022-12-10T09:25:30;34.08;;;18.67;;
61525;SDS011;47394;41.366;-8.738;2022-12-10T09:28:29;30.42;;;23.95;;
61525;SDS011;47394;41.366;-8.738;2022-12-10T09:31:29;27.20;;;21.95;;
61525;SDS011;47394;41.366;-8.738;2022-12-10T09:34:28;29.70;;;22.40;;
61525;SDS011;47394;41.366;-8.738;2022-12-10T09:37:28;25.60;;;19.88;;
61525;SDS011;47394;41.366;-8.738;2022-12-10T09:40:39;21.83;;;18.23;;
61525;SDS011;47394;41.366;-8.738;2022-12-10T09:43:53;22.88;;;16.35;;
61525;SDS011;47394;41.366;-8.738;2022-12-10T09:47:09;28.58;;;16.55;;
61525;SDS011;47394;41.366;-8.738;2022-12-10T09:50:12;17.95;;;14.63;;
61525;SDS011;47394;41.366;-8.738;2022-12-10T09:53:18;21.73;;;17.20;;
61525;SDS011;47394;41.366;-8.738;2022-12-10T09:56:23;22.50;;;15.75;;
61525;SDS011;47394;41.366;-8.738;2022-12-10T09:59:42;50.95;;;19.50;;
61525;SDS011;47394;41.366;-8.738;2022-12-10T10:02:45;24.23;;;15.57;;
61525;SDS011;47394;41.366;-8.738;2022-12-10T10:05:48;21.23;;;13.73;;
61525;SDS011;47394;41.366;-8.738;2022-12-10T10:08:50;13.48;;;11.20;;
61525;SDS011;47394;41.366;-8.738;2022-12-10T10:11:51;13.73;;;10.95;;
61525;SDS011;47394;41.366;-8.738;2022-12-10T10:14:52;11.90;;;8.70;;
61525;SDS011;47394;41.366;-8.738;2022-12-10T10:17:53;13.98;;;8.80;;
61525;SDS011;47394;41.366;-8.738;2022-12-10T10:20:57;12.48;;;9.25;;
61525;SDS011;47394;41.366;-8.738;2022-12-10T10:23:57;12.07;;;8.98;;
61525;SDS011;47394;41.366;-8.738;2022-12-10T10:26:57;11.30;;;7.82;;
61525;SDS011;47394;41.366;-8.738;2022-12-10T10:29:57;10.80;;;6.60;;
61525;SDS011;47394;41.366;-8.738;2022-12-10T10:32:57;10.75;;;7.95;;
61525;SDS011;47394;41.366;-8.738;2022-12-10T10:36:01;9.75;;;6.97;;
61525;SDS011;47394;41.366;-8.738;2022-12-10T10:42:37;6.32;;;5.20;;
61525;SDS011;47394;41.366;-8.738;2022-12-10T10:45:42;8.05;;;5.82;;
61525;SDS011;47394;41.366;-8.738;2022-12-10T10:48:42;8.00;;;4.90;;
61525;SDS011;47394;41.366;-8.738;2022-12-10T10:51:44;7.15;;;4.45;;
61525;SDS011;47394;41.366;-8.738;2022-12-10T10:54:44;9.18;;;5.50;;
61525;SDS011;47394;41.366;-8.738;2022-12-10T10:57:43;6.82;;;4.63;;
61525;SDS011;47394;41.366;-8.738;2022-12-10T11:01:19;10.10;;;3.97;;
61525;SDS011;47394;41.366;-8.738;2022-12-10T11:07:35;20.67;;;6.95;;
61525;SDS011;47394;41.366;-8.738;2022-12-10T11:10:37;27.42;;;9.57;;
61525;SDS011;47394;41.366;-8.738;2022-12-10T11:13:50;19.58;;;7.82;;
61525;SDS011;47394;41.366;-8.738;2022-12-10T11:16:49;7.30;;;4.32;;
61525;SDS011;47394;41.366;-8.738;2022-12-10T11:20:01;8.45;;;4.63;;
61525;SDS011;47394;41.366;-8.738;2022-12-10T11:23:22;9.95;;;4.15;;
61525;SDS011;47394;41.366;-8.738;2022-12-10T11:36:10;15.65;;;3.85;;
61525;SDS011;47394;41.366;-8.738;2022-12-10T11:39:44;11.68;;;4.07;;
61525;SDS011;47394;41.366;-8.738;2022-12-10T11:42:57;12.40;;;4.03;;
61525;SDS011;47394;41.366;-8.738;2022-12-10T11:56:15;15.10;;;3.85;;
61525;SDS011;47394;41.366;-8.738;2022-12-10T11:59:19;15.10;;;4.32;;
61525;SDS011;47394;41.366;-8.738;2022-12-10T12:02:42;11.50;;;4.00;;
61525;SDS011;47394;41.366;-8.738;2022-12-10T12:06:09;11.52;;;3.92;;
61525;SDS011;47394;41.366;-8.738;2022-12-10T12:15:35;12.95;;;4.03;;
61525;SDS011;47394;41.366;-8.738;2022-12-10T12:18:52;34.75;;;4.05;;
61525;SDS011;47394;41.366;-8.738;2022-12-10T12:21:55;17.65;;;3.53;;
61525;SDS011;47394;41.366;-8.738;2022-12-10T12:25:31;14.80;;;3.38;;
61525;SDS011;47394;41.366;-8.738;2022-12-10T12:28:41;7.25;;;2.70;;
61525;SDS011;47394;41.366;-8.738;2022-12-10T12:32:02;11.02;;;3.65;;
61525;SDS011;47394;41.366;-8.738;2022-12-10T12:35:22;7.10;;;3.47;;
61525;SDS011;47394;41.366;-8.738;2022-12-10T12:38:32;7.38;;;3.38;;
61525;SDS011;47394;41.366;-8.738;2022-12-10T12:41:44;8.63;;;3.42;;
61525;SDS011;47394;41.366;-8.738;2022-12-10T12:45:04;6.93;;;2.35;;
61525;SDS011;47394;41.366;-8.738;2022-12-10T12:48:19;7.78;;;2.10;;
61525;SDS011;47394;41.366;-8.738;2022-12-10T12:51:34;13.95;;;2.47;;
61525;SDS011;47394;41.366;-8.738;2022-12-10T12:54:57;4.35;;;2.17;;
61525;SDS011;47394;41.366;-8.738;2022-12-10T13:01:31;7.30;;;2.47;;
61525;SDS011;47394;41.366;-8.738;2022-12-10T13:04:32;9.18;;;2.78;;
61525;SDS011;47394;41.366;-8.738;2022-12-10T13:07:34;6.25;;;2.30;;
61525;SDS011;47394;41.366;-8.738;2022-12-10T13:10:52;12.07;;;2.75;;
61525;SDS011;47394;41.366;-8.738;2022-12-10T13:20:41;6.70;;;2.17;;
61525;SDS011;47394;41.366;-8.738;2022-12-10T13:24:07;7.65;;;3.15;;
61525;SDS011;47394;41.366;-8.738;2022-12-10T13:27:31;6.05;;;1.80;;
61525;SDS011;47394;41.366;-8.738;2022-12-10T13:30:35;6.57;;;2.17;;
61525;SDS011;47394;41.366;-8.738;2022-12-10T13:43:51;8.07;;;2.20;;
61525;SDS011;47394;41.366;-8.738;2022-12-10T13:50:38;8.85;;;2.60;;
61525;SDS011;47394;41.366;-8.738;2022-12-10T13:57:24;11.60;;;2.67;;
61525;SDS011;47394;41.366;-8.738;2022-12-10T14:06:55;8.32;;;2.45;;
61525;SDS011;47394;41.366;-8.738;2022-12-10T14:09:56;9.18;;;2.67;;
61525;SDS011;47394;41.366;-8.738;2022-12-10T14:12:59;8.27;;;2.30;;
61525;SDS011;47394;41.366;-8.738;2022-12-10T14:16:00;7.05;;;2.40;;
61525;SDS011;47394;41.366;-8.738;2022-12-10T14:19:03;5.97;;;2.08;;
61525;SDS011;47394;41.366;-8.738;2022-12-10T14:22:05;9.77;;;3.55;;
61525;SDS011;47394;41.366;-8.738;2022-12-10T14:25:40;4.80;;;2.65;;
61525;SDS011;47394;41.366;-8.738;2022-12-10T14:28:41;5.15;;;2.13;;
61525;SDS011;47394;41.366;-8.738;2022-12-10T14:31:47;7.38;;;3.00;;
61525;SDS011;47394;41.366;-8.738;2022-12-10T14:34:54;10.60;;;2.40;;
61525;SDS011;47394;41.366;-8.738;2022-12-10T14:37:56;6.10;;;2.72;;
61525;SDS011;47394;41.366;-8.738;2022-12-10T14:40:56;5.95;;;2.42;;
61525;SDS011;47394;41.366;-8.738;2022-12-10T14:47:03;4.28;;;1.95;;
61525;SDS011;47394;41.366;-8.738;2022-12-10T14:50:11;6.95;;;2.80;;
61525;SDS011;47394;41.366;-8.738;2022-12-10T14:53:18;8.02;;;3.10;;
61525;SDS011;47394;41.366;-8.738;2022-12-10T14:56:28;16.73;;;2.00;;
61525;SDS011;47394;41.366;-8.738;2022-12-10T14:59:42;5.10;;;2.28;;
61525;SDS011;47394;41.366;-8.738;2022-12-10T15:03:30;10.10;;;2.42;;
61525;SDS011;47394;41.366;-8.738;2022-12-10T15:06:06;9.82;;;2.22;;
61525;SDS011;47394;41.366;-8.738;2022-12-10T15:09:20;3.80;;;2.05;;
61525;SDS011;47394;41.366;-8.738;2022-12-10T15:12:27;3.53;;;1.70;;
61525;SDS011;47394;41.366;-8.738;2022-12-10T15:15:39;5.32;;;2.60;;
61525;SDS011;47394;41.366;-8.738;2022-12-10T15:18:40;7.97;;;2.10;;
61525;SDS011;47394;41.366;-8.738;2022-12-10T15:21:40;5.22;;;2.00;;
61525;SDS011;47394;41.366;-8.738;2022-12-10T15:24:40;3.65;;;1.73;;
61525;SDS011;47394;41.366;-8.738;2022-12-10T15:28:21;3.50;;;1.55;;
61525;SDS011;47394;41.366;-8.738;2022-12-10T15:34:33;8.32;;;2.33;;
61525;SDS011;47394;41.366;-8.738;2022-12-10T15:37:37;9.93;;;2.45;;
61525;SDS011;47394;41.366;-8.738;2022-12-10T15:40:37;7.90;;;2.25;;
61525;SDS011;47394;41.366;-8.738;2022-12-10T15:43:55;3.75;;;1.60;;
61525;SDS011;47394;41.366;-8.738;2022-12-10T15:47:18;3.97;;;2.33;;
61525;SDS011;47394;41.366;-8.738;2022-12-10T15:50:18;3.40;;;1.80;;
61525;SDS011;47394;41.366;-8.738;2022-12-10T15:53:25;4.90;;;2.53;;
61525;SDS011;47394;41.366;-8.738;2022-12-10T15:56:44;4.78;;;1.92;;
61525;SDS011;47394;41.366;-8.738;2022-12-10T16:02:57;4.97;;;2.03;;
61525;SDS011;47394;41.366;-8.738;2022-12-10T16:05:57;7.35;;;2.42;;
61525;SDS011;47394;41.366;-8.738;2022-12-10T16:08:57;5.78;;;2.65;;
61525;SDS011;47394;41.366;-8.738;2022-12-10T16:11:56;5.30;;;2.53;;
61525;SDS011;47394;41.366;-8.738;2022-12-10T16:14:55;7.00;;;3.35;;
61525;SDS011;47394;41.366;-8.738;2022-12-10T16:18:00;8.75;;;2.78;;
61525;SDS011;47394;41.366;-8.738;2022-12-10T16:20:59;5.18;;;2.63;;
61525;SDS011;47394;41.366;-8.738;2022-12-10T16:23:58;12.82;;;5.20;;
61525;SDS011;47394;41.366;-8.738;2022-12-10T16:26:57;6.00;;;2.78;;
61525;SDS011;47394;41.366;-8.738;2022-12-10T16:29:58;6.65;;;2.95;;
61525;SDS011;47394;41.366;-8.738;2022-12-10T16:32:59;5.43;;;2.67;;
61525;SDS011;47394;41.366;-8.738;2022-12-10T16:35:58;6.30;;;2.72;;
61525;SDS011;47394;41.366;-8.738;2022-12-10T16:38:57;9.27;;;4.80;;
61525;SDS011;47394;41.366;-8.738;2022-12-10T16:41:56;12.75;;;8.10;;
61525;SDS011;47394;41.366;-8.738;2022-12-10T16:44:56;19.60;;;10.38;;
61525;SDS011;47394;41.366;-8.738;2022-12-10T16:47:55;14.43;;;7.63;;
61525;SDS011;47394;41.366;-8.738;2022-12-10T16:50:56;12.13;;;5.97;;
61525;SDS011;47394;41.366;-8.738;2022-12-10T16:53:56;10.85;;;5.53;;
61525;SDS011;47394;41.366;-8.738;2022-12-10T16:56:56;11.95;;;5.13;;
61525;SDS011;47394;41.366;-8.738;2022-12-10T16:59:55;6.95;;;3.65;;
61525;SDS011;47394;41.366;-8.738;2022-12-10T17:02:55;5.72;;;2.92;;
61525;SDS011;47394;41.366;-8.738;2022-12-10T17:05:55;6.32;;;2.55;;
61525;SDS011;47394;41.366;-8.738;2022-12-10T17:08:55;5.93;;;2.67;;
61525;SDS011;47394;41.366;-8.738;2022-12-10T17:11:54;4.15;;;2.40;;
61525;SDS011;47394;41.366;-8.738;2022-12-10T17:14:53;5.63;;;2.95;;
61525;SDS011;47394;41.366;-8.738;2022-12-10T17:17:53;8.48;;;4.47;;
61525;SDS011;47394;41.366;-8.738;2022-12-10T17:20:52;8.73;;;5.00;;
61525;SDS011;47394;41.366;-8.738;2022-12-10T17:23:51;9.98;;;7.10;;
61525;SDS011;47394;41.366;-8.738;2022-12-10T17:26:51;13.43;;;9.80;;
61525;SDS011;47394;41.366;-8.738;2022-12-10T17:29:51;28.92;;;17.05;;
61525;SDS011;47394;41.366;-8.738;2022-12-10T17:32:50;16.70;;;11.57;;
61525;SDS011;47394;41.366;-8.738;2022-12-10T17:35:50;10.63;;;8.32;;
61525;SDS011;47394;41.366;-8.738;2022-12-10T17:38:51;19.25;;;9.65;;
61525;SDS011;47394;41.366;-8.738;2022-12-10T17:41:50;11.70;;;8.68;;
61525;SDS011;47394;41.366;-8.738;2022-12-10T17:44:50;14.15;;;8.82;;
61525;SDS011;47394;41.366;-8.738;2022-12-10T17:47:49;12.27;;;8.18;;
61525;SDS011;47394;41.366;-8.738;2022-12-10T17:50:48;12.02;;;7.97;;
61525;SDS011;47394;41.366;-8.738;2022-12-10T17:53:48;13.07;;;8.52;;
61525;SDS011;47394;41.366;-8.738;2022-12-10T17:56:47;18.60;;;10.20;;
61525;SDS011;47394;41.366;-8.738;2022-12-10T17:59:46;20.67;;;10.18;;
61525;SDS011;47394;41.366;-8.738;2022-12-10T18:02:47;19.63;;;9.90;;
61525;SDS011;47394;41.366;-8.738;2022-12-10T18:05:47;22.92;;;9.32;;
61525;SDS011;47394;41.366;-8.738;2022-12-10T18:08:46;15.43;;;10.15;;
61525;SDS011;47394;41.366;-8.738;2022-12-10T18:11:46;14.98;;;10.90;;
61525;SDS011;47394;41.366;-8.738;2022-12-10T18:14:45;22.15;;;11.80;;
61525;SDS011;47394;41.366;-8.738;2022-12-10T18:17:45;15.13;;;10.80;;
61525;SDS011;47394;41.366;-8.738;2022-12-10T18:20:45;16.38;;;11.68;;
61525;SDS011;47394;41.366;-8.738;2022-12-10T18:23:44;16.50;;;11.32;;
61525;SDS011;47394;41.366;-8.738;2022-12-10T18:26:43;18.77;;;11.63;;
61525;SDS011;47394;41.366;-8.738;2022-12-10T18:29:43;19.40;;;14.02;;
61525;SDS011;47394;41.366;-8.738;2022-12-10T18:32:42;17.00;;;12.68;;
61525;SDS011;47394;41.366;-8.738;2022-12-10T18:35:44;26.95;;;15.18;;
61525;SDS011;47394;41.366;-8.738;2022-12-10T18:38:45;18.95;;;13.65;;
61525;SDS011;47394;41.366;-8.738;2022-12-10T18:41:44;20.85;;;13.18;;
61525;SDS011;47394;41.366;-8.738;2022-12-10T18:44:43;25.02;;;14.32;;
61525;SDS011;47394;41.366;-8.738;2022-12-10T18:47:43;27.35;;;16.20;;
61525;SDS011;47394;41.366;-8.738;2022-12-10T18:50:42;19.48;;;12.85;;
61525;SDS011;47394;41.366;-8.738;2022-12-10T18:53:43;27.13;;;17.65;;
61525;SDS011;47394;41.366;-8.738;2022-12-10T18:56:43;40.45;;;23.10;;
61525;SDS011;47394;41.366;-8.738;2022-12-10T18:59:42;36.22;;;17.55;;
61525;SDS011;47394;41.366;-8.738;2022-12-10T19:02:42;23.52;;;16.25;;
61525;SDS011;47394;41.366;-8.738;2022-12-10T19:05:42;17.65;;;14.00;;
61525;SDS011;47394;41.366;-8.738;2022-12-10T19:08:44;20.42;;;12.95;;
61525;SDS011;47394;41.366;-8.738;2022-12-10T19:11:44;22.75;;;15.23;;
61525;SDS011;47394;41.366;-8.738;2022-12-10T19:14:44;18.77;;;13.75;;
61525;SDS011;47394;41.366;-8.738;2022-12-10T19:17:43;17.85;;;13.45;;